createdAt,value
2017-12-01T00:00:03.076Z,99676.75
2017-12-01T00:01:05.532Z,99681.81
2017-12-01T00:02:08.021Z,99672.95
2017-12-01T00:03:10.493Z,99676.21
2017-12-01T00:04:12.967Z,99676.16
2017-12-01T00:05:15.431Z,99678.14
2017-12-01T00:06:17.909Z,99684.16
2017-12-01T00:07:20.392Z,99681.84
2017-12-01T00:08:22.865Z,99683.59
2017-12-01T00:09:25.414Z,99681.81
2017-12-01T00:10:27.879Z,99684.16
2017-12-01T00:11:30.344Z,99686.18
2017-12-01T00:12:32.826Z,99679.89
2017-12-01T00:13:35.296Z,99681.91
2017-12-01T00:14:37.805Z,99690.80
2017-12-01T00:15:40.270Z,99697.70
2017-12-01T00:16:42.740Z,99690.50
2017-12-01T00:17:45.240Z,99698.77
2017-12-01T00:18:47.700Z,99688.83
2017-12-01T00:19:50.173Z,99691.53
2017-12-01T00:20:52.627Z,99693.98
2017-12-01T00:21:55.100Z,99699.44
2017-12-01T00:22:57.579Z,99698.02
2017-12-01T00:24:00.042Z,99691.89
2017-12-01T00:25:02.495Z,99691.14
2017-12-01T00:26:04.965Z,99695.42
2017-12-01T00:27:07.418Z,99691.96
2017-12-01T00:28:09.898Z,99696.59
2017-12-01T00:29:12.364Z,99697.59
2017-12-01T00:30:14.818Z,99704.23
2017-12-01T00:31:17.330Z,99705.20
2017-12-01T00:32:19.791Z,99704.37
2017-12-01T00:33:22.279Z,99707.61
2017-12-01T00:34:24.748Z,99707.70
2017-12-01T00:35:27.228Z,99709.89
2017-12-01T00:36:29.689Z,99707.77
2017-12-01T00:37:32.151Z,99716.33
2017-12-01T00:38:34.631Z,99712.57
2017-12-01T00:39:37.110Z,99708.34
2017-12-01T00:40:39.578Z,99710.45
2017-12-01T00:41:42.062Z,99709.11
2017-12-01T00:42:44.522Z,99705.42
2017-12-01T00:43:47.008Z,99710.92
2017-12-01T00:44:49.472Z,99712.80
2017-12-01T00:45:51.931Z,99717.77
2017-12-01T00:46:54.397Z,99720.14
2017-12-01T00:47:56.850Z,99719.67
2017-12-01T00:48:59.346Z,99711.41
2017-12-01T00:50:01.816Z,99716.73
2017-12-01T00:51:04.292Z,99718.14
2017-12-01T00:52:06.784Z,99718.31
2017-12-01T00:53:09.260Z,99714.84
2017-12-01T00:54:11.758Z,99721.77
2017-12-01T00:55:14.240Z,99724.14
2017-12-01T00:56:16.707Z,99725.50
2017-12-01T00:57:19.175Z,99722.16
2017-12-01T00:58:21.658Z,99724.53
2017-12-01T00:59:24.153Z,99732.41
2017-12-01T01:00:26.606Z,99730.30
2017-12-01T01:01:29.072Z,99734.17
2017-12-01T01:02:31.540Z,99734.07
2017-12-01T01:03:34.021Z,99731.66
2017-12-01T01:04:36.498Z,99737.34
2017-12-01T01:05:38.959Z,99737.61
2017-12-01T01:06:41.440Z,99739.43
2017-12-01T01:07:43.908Z,99737.80
2017-12-01T01:08:46.393Z,99742.16
2017-12-01T01:09:48.871Z,99744.21
2017-12-01T01:10:51.326Z,99739.70
2017-12-01T01:11:53.787Z,99746.61
2017-12-01T01:12:56.257Z,99745.91
2017-12-01T01:13:58.714Z,99750.52
2017-12-01T01:15:01.217Z,99747.98
2017-12-01T01:16:03.683Z,99748.70
2017-12-01T01:17:06.193Z,99748.92
2017-12-01T01:18:08.661Z,99748.72
2017-12-01T01:19:11.119Z,99753.44
2017-12-01T01:20:13.600Z,99750.52
2017-12-01T01:21:16.074Z,99752.42
2017-12-01T01:22:18.542Z,99758.98
2017-12-01T01:23:21.017Z,99759.75
2017-12-01T01:24:23.473Z,99765.63
2017-12-01T01:25:25.946Z,99763.75
2017-12-01T01:26:28.428Z,99769.19
2017-12-01T01:27:30.886Z,99769.04
2017-12-01T01:28:33.364Z,99775.77
2017-12-01T01:29:35.833Z,99776.06
2017-12-01T01:30:38.332Z,99770.91
2017-12-01T01:31:40.800Z,99769.53
2017-12-01T01:32:43.266Z,99772.31
2017-12-01T01:33:45.727Z,99768.19
2017-12-01T01:34:48.184Z,99776.20
2017-12-01T01:35:50.667Z,99772.52
2017-12-01T01:36:53.153Z,99777.38
2017-12-01T01:37:55.609Z,99778.19
2017-12-01T01:38:58.108Z,99776.56
2017-12-01T01:40:00.589Z,99783.68
2017-12-01T01:41:03.106Z,99776.06
2017-12-01T01:42:05.563Z,99778.40
2017-12-01T01:43:08.041Z,99779.83
2017-12-01T01:44:10.502Z,99786.73
2017-12-01T01:45:12.977Z,99782.98
2017-12-01T01:46:15.473Z,99786.50
2017-12-01T01:47:17.930Z,99785.42
2017-12-01T01:48:20.395Z,99782.93
2017-12-01T01:49:22.856Z,99782.96
2017-12-01T01:50:25.315Z,99778.31
2017-12-01T01:51:27.813Z,99785.19
2017-12-01T01:52:30.292Z,99789.48
2017-12-01T01:53:32.760Z,99791.80
2017-12-01T01:54:35.228Z,99790.02
2017-12-01T01:55:37.688Z,99791.69
2017-12-01T01:56:40.163Z,99796.00
2017-12-01T01:57:42.967Z,99796.23
2017-12-01T01:58:45.423Z,99796.89
2017-12-01T01:59:47.887Z,99796.78
2017-12-01T02:00:50.362Z,99794.85
2017-12-01T02:01:52.871Z,99793.91
2017-12-01T02:02:55.328Z,99797.07
2017-12-01T02:03:57.804Z,99797.63
2017-12-01T02:05:00.289Z,99798.20
2017-12-01T02:06:02.767Z,99798.59
2017-12-01T02:07:05.261Z,99802.54
2017-12-01T02:08:07.722Z,99797.96
2017-12-01T02:09:10.180Z,99806.75
2017-12-01T02:10:12.650Z,99801.16
2017-12-01T02:11:15.170Z,99803.56
2017-12-01T02:12:17.612Z,99806.41
2017-12-01T02:13:20.084Z,99805.05
2017-12-01T02:14:22.557Z,99808.48
2017-12-01T02:15:25.014Z,99811.30
2017-12-01T02:16:27.473Z,99813.44
2017-12-01T02:17:29.947Z,99813.84
2017-12-01T02:18:32.406Z,99810.28
2017-12-01T02:19:34.878Z,99814.14
2017-12-01T02:20:37.330Z,99806.56
2017-12-01T02:21:39.812Z,99810.95
2017-12-01T02:22:42.291Z,99811.88
2017-12-01T02:23:44.765Z,99813.73
2017-12-01T02:24:47.237Z,99813.31
2017-12-01T02:25:49.691Z,99810.05
2017-12-01T02:26:52.142Z,99813.80
2017-12-01T02:27:54.636Z,99816.53
2017-12-01T02:28:57.110Z,99814.67
2017-12-01T02:29:59.566Z,99818.45
2017-12-01T02:31:02.036Z,99821.43
2017-12-01T02:32:04.495Z,99815.81
2017-12-01T02:33:07.035Z,99818.06
2017-12-01T02:34:09.499Z,99820.31
2017-12-01T02:35:11.971Z,99816.53
2017-12-01T02:36:14.427Z,99820.05
2017-12-01T02:37:16.897Z,99820.88
2017-12-01T02:38:19.394Z,99820.34
2017-12-01T02:39:21.851Z,99821.20
2017-12-01T02:40:24.315Z,99817.89
2017-12-01T02:41:26.787Z,99824.11
2017-12-01T02:42:29.277Z,99827.89
2017-12-01T02:43:31.795Z,99825.39
2017-12-01T02:44:34.269Z,99826.70
2017-12-01T02:45:36.745Z,99829.65
2017-12-01T02:46:39.203Z,99831.52
2017-12-01T02:47:41.666Z,99834.03
2017-12-01T02:48:44.166Z,99826.60
2017-12-01T02:49:46.647Z,99828.45
2017-12-01T02:50:49.108Z,99835.42
2017-12-01T02:51:51.567Z,99845.48
2017-12-01T02:52:54.142Z,99840.61
2017-12-01T02:53:56.646Z,99842.61
2017-12-01T02:54:59.112Z,99839.17
2017-12-01T02:56:01.589Z,99844.59
2017-12-01T02:57:04.065Z,99839.19
2017-12-01T02:58:06.527Z,99849.19
2017-12-01T02:59:09.006Z,99842.34
2017-12-01T03:00:11.482Z,99854.02
2017-12-01T03:01:13.954Z,99844.52
2017-12-01T03:02:16.429Z,99853.42
2017-12-01T03:03:18.887Z,99852.77
2017-12-01T03:04:21.381Z,99853.28
2017-12-01T03:05:23.857Z,99850.98
2017-12-01T03:06:26.322Z,99852.53
2017-12-01T03:07:28.851Z,99850.05
2017-12-01T03:08:31.318Z,99856.00
2017-12-01T03:09:33.949Z,99859.88
2017-12-01T03:10:36.425Z,99861.89
2017-12-01T03:11:38.896Z,99862.68
2017-12-01T03:12:41.378Z,99862.06
2017-12-01T03:13:43.836Z,99864.75
2017-12-01T03:14:46.320Z,99863.75
2017-12-01T03:15:48.775Z,99865.62
2017-12-01T03:16:51.235Z,99863.47
2017-12-01T03:17:53.695Z,99863.14
2017-12-01T03:18:56.151Z,99863.70
2017-12-01T03:19:58.631Z,99859.92
2017-12-01T03:21:01.105Z,99863.80
2017-12-01T03:22:03.568Z,99860.87
2017-12-01T03:23:06.035Z,99863.66
2017-12-01T03:24:08.490Z,99864.09
2017-12-01T03:25:10.984Z,99867.23
2017-12-01T03:26:13.444Z,99867.88
2017-12-01T03:27:15.913Z,99866.80
2017-12-01T03:28:18.388Z,99870.64
2017-12-01T03:29:20.873Z,99872.54
2017-12-01T03:30:23.372Z,99869.99
2017-12-01T03:31:25.843Z,99879.35
2017-12-01T03:32:28.312Z,99875.02
2017-12-01T03:33:30.766Z,99868.88
2017-12-01T03:34:33.226Z,99873.91
2017-12-01T03:35:35.726Z,99877.13
2017-12-01T03:36:38.201Z,99877.56
2017-12-01T03:37:40.673Z,99881.75
2017-12-01T03:38:43.158Z,99880.81
2017-12-01T03:39:45.630Z,99886.05
2017-12-01T03:40:48.100Z,99886.14
2017-12-01T03:41:50.558Z,99891.30
2017-12-01T03:42:53.024Z,99893.45
2017-12-01T03:43:55.507Z,99895.96
2017-12-01T03:44:57.966Z,99898.29
2017-12-01T03:46:00.506Z,99902.95
2017-12-01T03:47:02.985Z,99902.95
2017-12-01T03:48:05.527Z,99904.70
2017-12-01T03:49:07.990Z,99901.40
2017-12-01T03:50:10.598Z,99911.61
2017-12-01T03:51:13.648Z,99913.27
2017-12-01T03:52:16.125Z,99915.43
2017-12-01T03:53:18.623Z,99916.20
2017-12-01T03:54:21.078Z,99912.28
2017-12-01T03:55:23.558Z,99916.41
2017-12-01T03:56:26.069Z,99918.02
2017-12-01T03:57:28.549Z,99918.95
2017-12-01T03:58:31.026Z,99919.03
2017-12-01T03:59:33.506Z,99924.09
2017-12-01T04:00:35.975Z,99923.98
2017-12-01T04:01:38.471Z,99924.77
2017-12-01T04:02:40.956Z,99923.95
2017-12-01T04:03:43.414Z,99924.37
2017-12-01T04:04:45.869Z,99926.77
2017-12-01T04:05:48.326Z,99927.61
2017-12-01T04:06:50.829Z,99932.41
2017-12-01T04:07:53.300Z,99934.09
2017-12-01T04:08:55.777Z,99934.16
2017-12-01T04:09:58.248Z,99927.39
2017-12-01T04:11:00.717Z,99933.20
2017-12-01T04:12:03.277Z,99934.45
2017-12-01T04:13:05.730Z,99932.91
2017-12-01T04:14:08.201Z,99938.48
2017-12-01T04:15:10.668Z,99938.70
2017-12-01T04:16:13.136Z,99935.51
2017-12-01T04:17:15.625Z,99945.80
2017-12-01T04:18:18.129Z,99936.33
2017-12-01T04:19:20.600Z,99946.13
2017-12-01T04:20:23.054Z,99946.70
2017-12-01T04:21:25.520Z,99948.35
2017-12-01T04:22:28.021Z,99948.45
2017-12-01T04:23:30.504Z,99943.25
2017-12-01T04:24:32.981Z,99939.87
2017-12-01T04:25:35.443Z,99944.58
2017-12-01T04:26:37.903Z,99951.30
2017-12-01T04:27:40.392Z,99951.41
2017-12-01T04:28:42.851Z,99950.47
2017-12-01T04:29:45.310Z,99955.95
2017-12-01T04:30:47.765Z,99960.30
2017-12-01T04:31:50.245Z,99962.56
2017-12-01T04:32:52.726Z,99963.28
2017-12-01T04:33:55.275Z,99964.75
2017-12-01T04:34:57.734Z,99963.39
2017-12-01T04:36:00.230Z,99965.90
2017-12-01T04:37:02.692Z,99965.22
2017-12-01T04:38:05.181Z,99969.16
2017-12-01T04:39:07.659Z,99963.89
2017-12-01T04:40:10.141Z,99972.33
2017-12-01T04:41:12.609Z,99968.59
2017-12-01T04:42:15.085Z,99974.23
2017-12-01T04:43:17.604Z,99980.36
2017-12-01T04:44:20.076Z,99985.00
2017-12-01T04:45:22.559Z,99977.13
2017-12-01T04:46:25.016Z,99982.11
2017-12-01T04:47:27.470Z,99985.42
2017-12-01T04:48:29.946Z,99985.53
2017-12-01T04:49:32.403Z,99984.49
2017-12-01T04:50:34.862Z,99989.16
2017-12-01T04:51:37.323Z,99984.52
2017-12-01T04:52:39.797Z,99982.04
2017-12-01T04:53:42.303Z,99980.52
2017-12-01T04:54:44.754Z,99986.30
2017-12-01T04:55:47.253Z,99994.58
2017-12-01T04:56:49.744Z,99997.06
2017-12-01T04:57:52.220Z,100000.83
2017-12-01T04:58:54.715Z,100001.58
2017-12-01T04:59:57.186Z,100007.31
2017-12-01T05:00:59.680Z,100008.89
2017-12-01T05:02:02.161Z,100012.73
2017-12-01T05:03:04.652Z,100017.77
2017-12-01T05:04:07.135Z,100014.66
2017-12-01T05:05:09.595Z,100015.56
2017-12-01T05:06:12.072Z,100021.05
2017-12-01T05:07:14.549Z,100017.64
2017-12-01T05:08:17.021Z,100016.52
2017-12-01T05:09:19.499Z,100025.77
2017-12-01T05:10:21.980Z,100016.67
2017-12-01T05:11:24.468Z,100017.44
2017-12-01T05:12:26.930Z,100025.69
2017-12-01T05:13:29.447Z,100020.55
2017-12-01T05:14:31.949Z,100022.55
2017-12-01T05:15:34.414Z,100026.38
2017-12-01T05:16:36.892Z,100023.58
2017-12-01T05:17:39.364Z,100027.09
2017-12-01T05:18:41.874Z,100026.80
2017-12-01T05:19:44.374Z,100030.23
2017-12-01T05:20:46.840Z,100031.27
2017-12-01T05:21:49.320Z,100030.94
2017-12-01T05:22:51.801Z,100035.81
2017-12-01T05:23:54.289Z,100026.84
2017-12-01T05:24:56.793Z,100027.65
2017-12-01T05:25:59.251Z,100034.67
2017-12-01T05:27:01.724Z,100034.13
2017-12-01T05:28:04.203Z,100033.48
2017-12-01T05:29:06.681Z,100041.64
2017-12-01T05:30:09.194Z,100036.19
2017-12-01T05:31:11.656Z,100036.36
2017-12-01T05:32:14.119Z,100034.09
2017-12-01T05:33:16.584Z,100043.09
2017-12-01T05:34:19.055Z,100040.10
2017-12-01T05:35:21.535Z,100049.37
2017-12-01T05:36:24.003Z,100046.98
2017-12-01T05:37:26.469Z,100047.37
2017-12-01T05:38:28.944Z,100055.27
2017-12-01T05:39:31.421Z,100051.94
2017-12-01T05:40:33.906Z,100057.98
2017-12-01T05:41:36.376Z,100061.64
2017-12-01T05:42:38.843Z,100059.45
2017-12-01T05:43:41.321Z,100061.61
2017-12-01T05:44:43.841Z,100062.13
2017-12-01T05:45:46.315Z,100068.25
2017-12-01T05:46:48.806Z,100064.23
2017-12-01T05:47:51.285Z,100074.21
2017-12-01T05:48:53.764Z,100071.01
2017-12-01T05:49:56.232Z,100072.11
2017-12-01T05:50:58.729Z,100072.05
2017-12-01T05:52:01.187Z,100077.45
2017-12-01T05:53:03.651Z,100071.77
2017-12-01T05:54:06.149Z,100075.63
2017-12-01T05:55:08.615Z,100081.88
2017-12-01T05:56:11.121Z,100079.31
2017-12-01T05:57:13.648Z,100083.36
2017-12-01T05:58:16.134Z,100083.12
2017-12-01T05:59:18.608Z,100084.57
2017-12-01T06:00:21.067Z,100087.00
2017-12-01T06:01:23.550Z,100088.56
2017-12-01T06:02:26.012Z,100086.44
2017-12-01T06:03:28.486Z,100090.66
2017-12-01T06:04:30.954Z,100094.50
2017-12-01T06:05:33.457Z,100086.17
2017-12-01T06:06:35.968Z,100095.73
2017-12-01T06:07:38.449Z,100099.02
2017-12-01T06:08:40.910Z,100102.69
2017-12-01T06:09:43.396Z,100102.67
2017-12-01T06:10:45.878Z,100103.95
2017-12-01T06:11:48.364Z,100102.63
2017-12-01T06:12:50.840Z,100110.80
2017-12-01T06:13:53.310Z,100105.69
2017-12-01T06:14:55.795Z,100118.31
2017-12-01T06:15:58.406Z,100116.30
2017-12-01T06:17:00.939Z,100110.23
2017-12-01T06:18:03.429Z,100114.90
2017-12-01T06:19:05.921Z,100115.26
2017-12-01T06:20:08.397Z,100124.92
2017-12-01T06:21:10.888Z,100123.58
2017-12-01T06:22:13.396Z,100126.09
2017-12-01T06:23:15.872Z,100131.87
2017-12-01T06:24:18.361Z,100127.09
2017-12-01T06:25:20.833Z,100130.92
2017-12-01T06:26:23.309Z,100129.41
2017-12-01T06:27:25.818Z,100131.06
2017-12-01T06:28:28.313Z,100133.14
2017-12-01T06:29:30.782Z,100133.34
2017-12-01T06:30:33.248Z,100139.88
2017-12-01T06:31:35.743Z,100136.53
2017-12-01T06:32:38.290Z,100139.16
2017-12-01T06:33:40.773Z,100137.86
2017-12-01T06:34:43.284Z,100143.73
2017-12-01T06:35:45.743Z,100143.62
2017-12-01T06:36:48.237Z,100146.80
2017-12-01T06:37:50.739Z,100149.34
2017-12-01T06:38:53.226Z,100153.27
2017-12-01T06:39:55.722Z,100157.49
2017-12-01T06:40:58.195Z,100151.36
2017-12-01T06:42:00.664Z,100154.70
2017-12-01T06:43:03.203Z,100153.50
2017-12-01T06:44:05.668Z,100155.20
2017-12-01T06:45:08.146Z,100155.09
2017-12-01T06:46:10.625Z,100153.81
2017-12-01T06:47:13.086Z,100154.77
2017-12-01T06:48:15.590Z,100155.64
2017-12-01T06:49:18.065Z,100159.33
2017-12-01T06:50:20.535Z,100168.95
2017-12-01T06:51:23.066Z,100158.58
2017-12-01T06:52:25.534Z,100161.86
2017-12-01T06:53:28.016Z,100164.58
2017-12-01T06:54:30.483Z,100164.25
2017-12-01T06:55:32.955Z,100173.38
2017-12-01T06:56:35.433Z,100174.12
2017-12-01T06:57:37.907Z,100175.80
2017-12-01T06:58:40.391Z,100173.90
2017-12-01T06:59:42.953Z,100176.36
2017-12-01T07:00:45.794Z,100184.00
2017-12-01T07:01:48.308Z,100185.24
2017-12-01T07:02:50.767Z,100192.05
2017-12-01T07:03:53.269Z,100190.70
2017-12-01T07:04:55.756Z,100190.23
2017-12-01T07:05:58.354Z,100192.45
2017-12-01T07:07:00.827Z,100194.88
2017-12-01T07:08:03.290Z,100195.67
2017-12-01T07:09:05.789Z,100203.88
2017-12-01T07:10:08.264Z,100199.08
2017-12-01T07:11:10.722Z,100205.66
2017-12-01T07:12:13.197Z,100201.30
2017-12-01T07:13:15.655Z,100208.45
2017-12-01T07:14:18.139Z,100209.75
2017-12-01T07:15:20.594Z,100208.29
2017-12-01T07:16:23.050Z,100215.53
2017-12-01T07:17:25.518Z,100219.41
2017-12-01T07:18:27.987Z,100219.00
2017-12-01T07:19:30.476Z,100221.23
2017-12-01T07:20:32.951Z,100219.39
2017-12-01T07:21:35.414Z,100229.33
2017-12-01T07:22:37.888Z,100232.08
2017-12-01T07:23:40.461Z,100229.30
2017-12-01T07:24:42.968Z,100236.69
2017-12-01T07:25:45.449Z,100230.37
2017-12-01T07:26:59.715Z,100235.84
2017-12-01T07:28:02.174Z,100239.52
2017-12-01T07:29:04.667Z,100237.72
2017-12-01T07:30:07.165Z,100244.04
2017-12-01T07:31:09.704Z,100236.95
2017-12-01T07:32:12.162Z,100240.56
2017-12-01T07:33:14.618Z,100242.63
2017-12-01T07:34:17.093Z,100240.51
2017-12-01T07:35:19.597Z,100245.66
2017-12-01T07:36:22.060Z,100252.44
2017-12-01T07:37:24.537Z,100250.28
2017-12-01T07:38:27.013Z,100253.70
2017-12-01T07:39:29.474Z,100254.06
2017-12-01T07:40:31.987Z,100255.54
2017-12-01T07:41:34.447Z,100257.44
2017-12-01T07:42:36.921Z,100258.39
2017-12-01T07:43:39.404Z,100261.17
2017-12-01T07:46:23.747Z,100264.66
2017-12-01T07:47:26.219Z,100266.03
2017-12-01T07:48:28.687Z,100264.09
2017-12-01T07:49:31.169Z,100265.84
2017-12-01T07:50:33.645Z,100265.66
2017-12-01T07:51:36.121Z,100265.57
2017-12-01T07:52:38.653Z,100268.42
2017-12-01T07:53:41.130Z,100265.05
2017-12-01T07:54:43.617Z,100267.70
2017-12-01T07:55:46.096Z,100267.65
2017-12-01T07:56:48.570Z,100270.50
2017-12-01T07:57:51.048Z,100271.28
2017-12-01T07:58:53.604Z,100271.80
2017-12-01T07:59:56.073Z,100275.08
2017-12-01T08:00:58.561Z,100272.81
2017-12-01T08:02:01.048Z,100280.75
2017-12-01T08:03:03.514Z,100281.05
2017-12-01T08:04:05.992Z,100278.52
2017-12-01T08:05:08.451Z,100285.12
2017-12-01T08:06:10.916Z,100285.74
2017-12-01T08:07:13.396Z,100284.04
2017-12-01T08:08:15.854Z,100286.22
2017-12-01T08:09:18.331Z,100289.27
2017-12-01T08:10:20.792Z,100293.87
2017-12-01T08:11:23.257Z,100293.16
2017-12-01T08:12:25.741Z,100299.16
2017-12-01T08:13:28.217Z,100298.43
2017-12-01T08:14:30.693Z,100298.86
2017-12-01T08:15:33.154Z,100304.81
2017-12-01T08:16:47.474Z,100307.45
2017-12-01T08:17:49.949Z,100311.17
2017-12-01T08:19:02.408Z,100307.72
2017-12-01T08:20:04.871Z,100313.81
2017-12-01T08:21:07.355Z,100311.80
2017-12-01T08:22:21.428Z,100316.86
2017-12-01T08:25:16.160Z,100323.52
2017-12-01T08:26:18.622Z,100326.41
2017-12-01T08:27:21.117Z,100329.73
2017-12-01T08:28:23.574Z,100330.31
2017-12-01T08:29:26.035Z,100330.58
2017-12-01T08:30:28.503Z,100333.49
2017-12-01T08:31:30.971Z,100332.64
2017-12-01T08:32:33.465Z,100338.32
2017-12-01T08:33:35.941Z,100343.89
2017-12-01T08:34:38.417Z,100337.11
2017-12-01T08:35:40.879Z,100341.39
2017-12-01T08:36:43.340Z,100343.65
2017-12-01T08:37:45.823Z,100347.67
2017-12-01T08:38:48.296Z,100341.50
2017-12-01T08:39:50.758Z,100345.70
2017-12-01T08:40:53.234Z,100355.09
2017-12-01T08:41:55.702Z,100350.39
2017-12-01T08:42:58.205Z,100354.56
2017-12-01T08:44:00.676Z,100358.23
2017-12-01T08:45:03.150Z,100352.70
2017-12-01T08:46:05.629Z,100358.82
2017-12-01T08:47:08.086Z,100352.16
2017-12-01T08:48:10.596Z,100350.87
2017-12-01T08:49:13.073Z,100354.39
2017-12-01T08:50:15.553Z,100349.61
2017-12-01T08:51:18.011Z,100347.38
2017-12-01T08:52:20.474Z,100347.80
2017-12-01T08:53:22.967Z,100353.45
2017-12-01T08:54:25.426Z,100354.50
2017-12-01T08:55:27.912Z,100349.72
2017-12-01T08:56:30.370Z,100351.61
2017-12-01T08:57:32.855Z,100355.36
2017-12-01T08:58:35.338Z,100355.77
2017-12-01T08:59:37.813Z,100357.20
2017-12-01T09:00:40.271Z,100364.58
2017-12-01T09:01:42.731Z,100364.83
2017-12-01T09:02:45.212Z,100362.72
2017-12-01T09:03:47.711Z,100362.17
2017-12-01T09:04:50.186Z,100366.16
2017-12-01T09:05:52.660Z,100367.10
2017-12-01T09:06:55.123Z,100370.72
2017-12-01T09:07:57.605Z,100370.91
2017-12-01T09:09:00.096Z,100376.88
2017-12-01T09:10:02.562Z,100377.62
2017-12-01T09:11:05.021Z,100385.84
2017-12-01T09:12:07.486Z,100385.80
2017-12-01T09:13:09.949Z,100375.55
2017-12-01T09:14:12.474Z,100381.95
2017-12-01T09:15:14.951Z,100389.34
2017-12-01T09:16:17.446Z,100387.99
2017-12-01T09:17:19.906Z,100385.09
2017-12-01T09:18:22.378Z,100386.73
2017-12-01T09:19:25.342Z,100394.23
2017-12-01T09:20:27.812Z,100392.65
2017-12-01T09:21:30.390Z,100402.18
2017-12-01T09:22:32.864Z,100395.30
2017-12-01T09:23:35.336Z,100395.66
2017-12-01T09:24:37.822Z,100403.77
2017-12-01T09:25:40.297Z,100399.26
2017-12-01T09:26:42.781Z,100401.05
2017-12-01T09:27:45.263Z,100406.84
2017-12-01T09:28:47.740Z,100409.35
2017-12-01T09:29:50.215Z,100409.91
2017-12-01T09:30:52.695Z,100412.68
2017-12-01T09:31:55.158Z,100411.28
2017-12-01T09:32:57.623Z,100411.98
2017-12-01T09:34:00.087Z,100420.81
2017-12-01T09:35:02.587Z,100420.50
2017-12-01T09:36:05.042Z,100421.52
2017-12-01T09:37:07.510Z,100421.11
2017-12-01T09:38:09.987Z,100423.22
2017-12-01T09:39:12.446Z,100427.30
2017-12-01T09:40:14.931Z,100424.74
2017-12-01T09:41:17.399Z,100430.44
2017-12-01T09:42:19.853Z,100434.70
2017-12-01T09:43:22.333Z,100434.20
2017-12-01T09:44:24.821Z,100441.61
2017-12-01T09:45:27.428Z,100436.38
2017-12-01T09:46:29.987Z,100437.34
2017-12-01T09:47:32.466Z,100437.50
2017-12-01T09:48:34.941Z,100439.89
2017-12-01T09:49:37.399Z,100442.58
2017-12-01T09:50:39.879Z,100438.91
2017-12-01T09:51:42.407Z,100440.87
2017-12-01T09:52:44.881Z,100444.84
2017-12-01T09:53:47.354Z,100447.75
2017-12-01T09:54:49.814Z,100449.53
2017-12-01T09:55:52.311Z,100449.45
2017-12-01T09:56:54.789Z,100447.52
2017-12-01T09:57:57.265Z,100443.16
2017-12-01T09:58:59.732Z,100449.23
2017-12-01T10:00:02.190Z,100451.76
2017-12-01T10:01:04.689Z,100454.33
2017-12-01T10:02:07.164Z,100451.63
2017-12-01T10:03:09.626Z,100451.47
2017-12-01T10:04:12.084Z,100449.70
2017-12-01T10:05:14.559Z,100456.18
2017-12-01T10:06:17.040Z,100447.21
2017-12-01T10:07:19.512Z,100448.91
2017-12-01T10:08:21.996Z,100449.98
2017-12-01T10:09:24.485Z,100453.59
2017-12-01T10:10:26.963Z,100451.77
2017-12-01T10:11:29.473Z,100448.67
2017-12-01T10:12:31.955Z,100451.84
2017-12-01T10:13:34.422Z,100447.48
2017-12-01T10:14:36.897Z,100450.41
2017-12-01T10:15:39.420Z,100451.13
2017-12-01T10:16:41.916Z,100447.09
2017-12-01T10:17:44.382Z,100451.27
2017-12-01T10:18:46.867Z,100461.02
2017-12-01T10:19:49.326Z,100456.91
2017-12-01T10:20:51.808Z,100464.80
2017-12-01T10:21:54.292Z,100462.08
2017-12-01T10:22:56.751Z,100465.04
2017-12-01T10:23:59.283Z,100472.30
2017-12-01T10:25:01.757Z,100470.16
2017-12-01T10:26:04.215Z,100473.63
2017-12-01T10:27:06.712Z,100476.38
2017-12-01T10:28:09.189Z,100474.22
2017-12-01T10:29:11.664Z,100474.64
2017-12-01T10:30:14.126Z,100478.89
2017-12-01T10:31:16.597Z,100479.96
2017-12-01T10:32:19.094Z,100483.86
2017-12-01T10:33:21.560Z,100485.96
2017-12-01T10:34:24.024Z,100484.58
2017-12-01T10:35:26.491Z,100485.33
2017-12-01T10:36:28.955Z,100487.97
2017-12-01T10:37:31.432Z,100490.34
2017-12-01T10:38:33.984Z,100497.06
2017-12-01T10:39:36.457Z,100490.91
2017-12-01T10:40:38.933Z,100497.70
2017-12-01T10:41:41.391Z,100491.09
2017-12-01T10:42:43.893Z,100498.14
2017-12-01T10:43:46.391Z,100500.37
2017-12-01T10:44:48.869Z,100497.31
2017-12-01T10:45:51.330Z,100497.21
2017-12-01T10:46:53.864Z,100504.33
2017-12-01T10:47:56.364Z,100499.04
2017-12-01T10:48:58.884Z,100497.74
2017-12-01T10:50:01.361Z,100501.00
2017-12-01T10:51:03.833Z,100502.55
2017-12-01T10:52:06.295Z,100501.30
2017-12-01T10:53:08.798Z,100501.48
2017-12-01T10:54:11.274Z,100507.16
2017-12-01T10:55:13.802Z,100507.57
2017-12-01T10:56:16.259Z,100505.05
2017-12-01T10:57:18.739Z,100504.36
2017-12-01T10:58:21.241Z,100508.49
2017-12-01T10:59:23.922Z,100508.97
2017-12-01T11:00:26.524Z,100505.78
2017-12-01T11:01:29.010Z,100512.25
2017-12-01T11:02:31.612Z,100511.26
2017-12-01T11:03:34.135Z,100513.65
2017-12-01T11:04:36.654Z,100517.03
2017-12-01T11:05:39.126Z,100511.04
2017-12-01T11:06:41.601Z,100512.47
2017-12-01T11:07:44.082Z,100515.53
2017-12-01T11:08:46.594Z,100519.05
2017-12-01T11:09:49.064Z,100511.37
2017-12-01T11:10:51.541Z,100511.69
2017-12-01T11:11:54.012Z,100516.23
2017-12-01T11:12:56.484Z,100523.81
2017-12-01T11:13:58.983Z,100525.30
2017-12-01T11:15:01.455Z,100530.78
2017-12-01T11:16:03.933Z,100533.73
2017-12-01T11:17:06.413Z,100533.70
2017-12-01T11:18:08.901Z,100533.03
2017-12-01T11:19:11.399Z,100532.59
2017-12-01T11:20:13.885Z,100535.66
2017-12-01T11:21:16.366Z,100537.16
2017-12-01T11:22:18.960Z,100535.63
2017-12-01T11:23:21.418Z,100535.94
2017-12-01T11:24:23.917Z,100536.43
2017-12-01T11:25:26.379Z,100534.52
2017-12-01T11:26:28.889Z,100539.78
2017-12-01T11:27:31.354Z,100530.73
2017-12-01T11:28:33.829Z,100535.91
2017-12-01T11:29:36.324Z,100531.34
2017-12-01T11:30:38.782Z,100537.95
2017-12-01T11:31:41.257Z,100535.59
2017-12-01T11:32:43.728Z,100527.69
2017-12-01T11:33:46.209Z,100529.20
2017-12-01T11:34:48.767Z,100521.44
2017-12-01T11:35:51.245Z,100536.77
2017-12-01T11:36:53.720Z,100535.49
2017-12-01T11:37:56.174Z,100530.45
2017-12-01T11:38:58.658Z,100530.14
2017-12-01T11:40:01.150Z,100529.46
2017-12-01T11:41:03.630Z,100530.99
2017-12-01T11:42:06.109Z,100531.16
2017-12-01T11:43:08.575Z,100529.87
2017-12-01T11:44:11.049Z,100528.61
2017-12-01T11:45:13.531Z,100530.28
2017-12-01T11:46:16.012Z,100527.41
2017-12-01T11:47:18.493Z,100537.26
2017-12-01T11:48:21.006Z,100535.20
2017-12-01T11:49:23.485Z,100541.83
2017-12-01T11:50:25.989Z,100536.38
2017-12-01T11:51:28.458Z,100544.05
2017-12-01T11:52:30.923Z,100539.19
2017-12-01T11:53:33.390Z,100549.00
2017-12-01T11:54:35.860Z,100543.03
2017-12-01T11:55:38.339Z,100552.22
2017-12-01T11:56:40.803Z,100555.91
2017-12-01T11:57:44.046Z,100556.08
2017-12-01T11:58:46.518Z,100553.33
2017-12-01T11:59:48.988Z,100557.47
2017-12-01T12:00:54.030Z,100557.42
2017-12-01T12:01:56.490Z,100551.19
2017-12-01T12:02:58.970Z,100548.20
2017-12-01T12:04:01.448Z,100551.28
2017-12-01T12:05:03.929Z,100550.60